createdAt,value
2018-08-24T00:00:03.248Z,1.40
2018-08-24T00:02:31.305Z,1.60
2018-08-24T00:04:59.339Z,2.50
2018-08-24T00:07:27.685Z,1.97
2018-08-24T00:09:55.753Z,1.47
2018-08-24T00:12:23.929Z,3.13
2018-08-24T00:14:52.005Z,3.50
2018-08-24T00:17:20.109Z,4.70
2018-08-24T00:19:48.173Z,4.27
2018-08-24T00:22:16.213Z,3.60
2018-08-24T00:24:44.425Z,4.17
2018-08-24T00:27:12.813Z,3.30
2018-08-24T00:29:41.019Z,4.33
2018-08-24T00:32:09.041Z,5.00
2018-08-24T00:34:37.085Z,4.33
2018-08-24T00:37:05.162Z,5.50
2018-08-24T00:39:33.245Z,6.23
2018-08-24T00:42:01.294Z,4.23
2018-08-24T00:44:29.500Z,5.70
2018-08-24T00:46:57.786Z,4.03
2018-08-24T00:49:25.997Z,3.27
2018-08-24T00:51:54.138Z,5.27
2018-08-24T00:54:22.552Z,4.80
2018-08-24T00:56:50.656Z,5.93
2018-08-24T00:59:18.667Z,4.90
2018-08-24T01:01:46.710Z,5.03
2018-08-24T01:04:14.777Z,5.30
2018-08-24T01:06:43.673Z,5.47
2018-08-24T01:09:11.888Z,7.30
2018-08-24T01:11:40.004Z,5.67
2018-08-24T01:14:08.196Z,7.23
2018-08-24T01:16:37.102Z,6.77
2018-08-24T01:19:05.431Z,3.87
2018-08-24T01:21:33.591Z,5.90
2018-08-24T01:24:01.713Z,6.43
2018-08-24T01:26:29.968Z,7.23
2018-08-24T01:28:58.093Z,6.60
2018-08-24T01:31:26.493Z,7.47
2018-08-24T01:33:55.053Z,8.03
2018-08-24T01:36:23.245Z,10.37
2018-08-24T01:38:52.703Z,7.70
2018-08-24T01:41:22.705Z,5.83
2018-08-24T01:43:50.821Z,7.97
2018-08-24T01:46:18.909Z,7.73
2018-08-24T01:48:46.942Z,8.77
2018-08-24T01:51:15.098Z,7.63
2018-08-24T01:53:43.239Z,7.90
2018-08-24T01:56:11.293Z,9.87
2018-08-24T01:58:39.322Z,6.63
2018-08-24T02:01:07.388Z,9.50
2018-08-24T02:03:35.424Z,11.30
2018-08-24T02:06:03.461Z,7.37
2018-08-24T02:08:31.633Z,7.93
2018-08-24T02:10:59.714Z,9.10
2018-08-24T02:13:27.873Z,8.90
2018-08-24T02:15:55.891Z,5.53
2018-08-24T02:18:23.921Z,8.27
2018-08-24T02:20:52.093Z,9.27
2018-08-24T02:23:20.187Z,8.50
2018-08-24T02:25:48.201Z,9.50
2018-08-24T02:28:16.264Z,10.47
2018-08-24T02:30:44.316Z,8.27
2018-08-24T02:33:12.385Z,8.97
2018-08-24T02:38:14.828Z,8.93
2018-08-24T02:40:42.887Z,10.80
2018-08-24T02:43:11.012Z,10.07
2018-08-24T02:45:39.194Z,12.37
2018-08-24T02:48:07.265Z,12.83
2018-08-24T02:50:35.423Z,11.40
2018-08-24T02:53:03.815Z,9.70
2018-08-24T02:55:31.981Z,14.20
2018-08-24T02:58:00.020Z,11.00
2018-08-24T03:00:28.321Z,11.50
2018-08-24T03:02:56.402Z,10.57
2018-08-24T03:05:24.847Z,10.53
2018-08-24T03:07:53.222Z,10.03
2018-08-24T03:10:21.325Z,10.07
2018-08-24T03:12:49.438Z,9.80
2018-08-24T03:15:17.665Z,10.33
2018-08-24T03:17:45.710Z,8.27
2018-08-24T03:20:13.788Z,8.47
2018-08-24T03:22:41.847Z,10.40
2018-08-24T03:25:09.892Z,7.07
2018-08-24T03:27:37.946Z,9.20
2018-08-24T03:30:06.408Z,7.33
2018-08-24T03:32:34.829Z,6.97
2018-08-24T03:35:02.854Z,8.00
2018-08-24T03:37:30.906Z,5.57
2018-08-24T03:39:58.968Z,5.67
2018-08-24T03:42:27.149Z,8.67
2018-08-24T03:44:56.093Z,7.33
2018-08-24T03:47:24.201Z,8.47
2018-08-24T03:49:52.216Z,7.73
2018-08-24T03:52:20.277Z,8.17
2018-08-24T03:54:48.533Z,9.60
2018-08-24T03:57:16.681Z,8.10
2018-08-24T03:59:44.868Z,7.77
2018-08-24T04:02:13.057Z,9.23
2018-08-24T04:04:41.168Z,9.73
2018-08-24T04:07:09.461Z,6.67
2018-08-24T04:09:37.588Z,11.13
2018-08-24T04:12:08.075Z,8.60
2018-08-24T04:14:36.194Z,8.43
2018-08-24T04:17:04.450Z,8.17
2018-08-24T04:19:32.600Z,9.87
2018-08-24T04:22:00.698Z,8.67
2018-08-24T04:24:28.791Z,8.97
2018-08-24T04:26:56.991Z,8.97
2018-08-24T04:29:25.012Z,7.73
2018-08-24T04:31:53.109Z,10.50
2018-08-24T04:34:21.205Z,13.43
2018-08-24T04:36:49.262Z,8.47
2018-08-24T04:39:17.294Z,12.37
2018-08-24T04:41:45.366Z,11.23
2018-08-24T04:44:13.463Z,8.93
2018-08-24T04:46:41.543Z,10.30
2018-08-24T04:49:09.624Z,10.60
2018-08-24T04:51:37.744Z,12.43
2018-08-24T04:54:05.892Z,9.87
2018-08-24T04:56:33.928Z,11.40
2018-08-24T04:59:01.997Z,13.03
2018-08-24T05:01:30.047Z,11.87
2018-08-24T05:03:58.133Z,9.77
2018-08-24T05:06:26.184Z,11.23
2018-08-24T05:08:54.250Z,12.87
2018-08-24T05:11:22.272Z,13.03
2018-08-24T05:13:50.405Z,12.10
2018-08-24T05:16:18.482Z,12.60
2018-08-24T05:18:46.593Z,12.30
2018-08-24T05:21:14.745Z,15.30
2018-08-24T05:23:42.767Z,12.27
2018-08-24T05:26:10.832Z,12.43
2018-08-24T05:28:39.045Z,13.23
2018-08-24T05:31:07.134Z,15.07
2018-08-24T05:33:36.002Z,15.60
2018-08-24T05:36:04.053Z,14.00
2018-08-24T05:38:32.366Z,13.43
2018-08-24T05:41:00.886Z,16.10
2018-08-24T05:43:28.978Z,18.57
2018-08-24T05:45:57.057Z,14.53
2018-08-24T05:48:25.148Z,16.73
2018-08-24T05:50:53.379Z,17.70
2018-08-24T05:53:21.457Z,15.93
2018-08-24T05:55:49.525Z,15.20
2018-08-24T05:58:17.581Z,20.23
2018-08-24T06:00:46.007Z,17.93
2018-08-24T06:03:14.009Z,16.10
2018-08-24T06:05:42.110Z,18.00
2018-08-24T06:08:10.149Z,17.73
2018-08-24T06:10:38.449Z,18.60
2018-08-24T06:13:06.663Z,15.63
2018-08-24T06:15:34.841Z,17.87
2018-08-24T06:18:04.150Z,17.07
2018-08-24T06:20:32.379Z,18.47
2018-08-24T06:23:00.413Z,14.63
2018-08-24T06:25:28.434Z,19.67
2018-08-24T06:27:56.505Z,17.27
2018-08-24T06:30:24.585Z,17.37
2018-08-24T06:32:52.699Z,19.73
2018-08-24T06:35:20.773Z,17.50
2018-08-24T06:37:48.813Z,16.17
2018-08-24T06:40:16.858Z,21.50
2018-08-24T06:42:44.917Z,16.90
2018-08-24T06:45:13.889Z,17.43
2018-08-24T06:47:41.959Z,14.13
2018-08-24T06:50:10.057Z,14.67
2018-08-24T06:52:38.088Z,14.33
2018-08-24T06:55:06.460Z,20.27
2018-08-24T06:57:34.486Z,19.83
2018-08-24T07:00:02.890Z,17.83
2018-08-24T07:02:30.913Z,18.73
2018-08-24T07:04:59.157Z,19.30
2018-08-24T07:07:27.579Z,17.87
2018-08-24T07:09:55.645Z,22.07
2018-08-24T07:12:23.792Z,20.27
2018-08-24T07:14:52.076Z,18.07
2018-08-24T07:17:20.162Z,16.43
2018-08-24T07:19:48.204Z,13.57
2018-08-24T07:22:16.264Z,14.30
2018-08-24T07:24:44.507Z,18.80
2018-08-24T07:27:12.542Z,22.37
2018-08-24T07:29:40.747Z,17.20
2018-08-24T07:32:08.845Z,16.47
2018-08-24T07:34:36.920Z,15.07
2018-08-24T07:37:05.285Z,18.57
2018-08-24T07:39:33.530Z,16.10
2018-08-24T07:42:02.703Z,16.33
2018-08-24T07:44:30.733Z,14.50
2018-08-24T07:46:59.524Z,18.63
2018-08-24T07:49:27.582Z,19.87
2018-08-24T07:51:56.124Z,18.10
2018-08-24T07:54:24.200Z,15.13
2018-08-24T07:56:52.260Z,12.93
2018-08-24T07:59:20.278Z,10.83
2018-08-24T08:01:48.535Z,12.53
2018-08-24T08:04:16.580Z,10.27
2018-08-24T08:06:46.173Z,14.77
2018-08-24T08:09:14.315Z,9.53
2018-08-24T08:11:42.357Z,10.73
2018-08-24T08:14:12.079Z,8.10
2018-08-24T08:16:40.168Z,11.27
2018-08-24T08:19:08.275Z,11.00
2018-08-24T08:21:36.310Z,12.77
2018-08-24T08:24:04.709Z,8.50
2018-08-24T08:26:32.829Z,10.23
2018-08-24T08:29:01.057Z,12.70
2018-08-24T08:31:29.114Z,10.53
2018-08-24T08:33:57.174Z,10.13
2018-08-24T08:36:25.200Z,12.53
2018-08-24T08:38:53.377Z,7.40
2018-08-24T08:41:21.891Z,8.00
2018-08-24T08:43:50.146Z,11.40
2018-08-24T08:46:18.197Z,7.13
2018-08-24T08:48:46.212Z,11.10
2018-08-24T08:51:14.283Z,10.00
2018-08-24T08:53:42.586Z,9.70
2018-08-24T08:56:11.440Z,11.70
2018-08-24T08:58:39.854Z,7.43
2018-08-24T09:01:08.498Z,14.70
2018-08-24T09:03:36.553Z,11.53
2018-08-24T09:06:04.750Z,8.37
2018-08-24T09:08:32.862Z,7.97
2018-08-24T09:11:01.160Z,10.50
2018-08-24T09:13:29.338Z,6.83
2018-08-24T09:15:57.410Z,10.00
2018-08-24T09:18:25.497Z,12.50
2018-08-24T09:20:53.541Z,10.10
2018-08-24T09:23:21.658Z,12.87
2018-08-24T09:25:49.833Z,8.23
2018-08-24T09:28:17.794Z,6.50
2018-08-24T09:30:45.853Z,8.87
2018-08-24T09:33:13.913Z,11.40
2018-08-24T09:35:42.042Z,8.60
2018-08-24T09:38:10.144Z,7.27
2018-08-24T09:40:38.152Z,12.67
2018-08-24T09:43:06.291Z,11.20
2018-08-24T09:45:34.268Z,9.67
2018-08-24T09:48:02.345Z,9.83
2018-08-24T09:50:30.430Z,7.87
2018-08-24T09:52:58.501Z,9.07
2018-08-24T09:55:26.569Z,10.00
2018-08-24T09:57:54.857Z,11.57
2018-08-24T10:00:23.985Z,8.20
2018-08-24T10:02:52.448Z,7.00
2018-08-24T10:05:20.639Z,6.93
2018-08-24T10:07:48.678Z,6.40
2018-08-24T10:10:16.839Z,6.47
2018-08-24T10:12:44.875Z,6.73
2018-08-24T10:15:12.964Z,8.33
2018-08-24T10:17:42.395Z,8.83
2018-08-24T10:20:10.403Z,9.17
2018-08-24T10:22:42.741Z,10.40
2018-08-24T10:25:11.922Z,7.57
2018-08-24T10:27:39.989Z,7.27
2018-08-24T10:30:08.053Z,5.77
2018-08-24T10:32:36.104Z,5.23
2018-08-24T10:35:04.274Z,5.50
2018-08-24T10:37:32.561Z,6.20
2018-08-24T10:40:00.600Z,7.87
2018-08-24T10:42:29.101Z,3.83
2018-08-24T10:44:59.615Z,5.27
2018-08-24T10:47:27.865Z,6.40
2018-08-24T10:49:55.984Z,5.27
2018-08-24T10:52:24.056Z,7.20
2018-08-24T10:54:52.351Z,2.80
2018-08-24T10:57:20.756Z,7.00
2018-08-24T10:59:51.517Z,5.43
2018-08-24T11:02:19.670Z,4.73
2018-08-24T11:04:47.797Z,8.10
2018-08-24T11:07:15.904Z,4.67
2018-08-24T11:09:44.063Z,5.70
2018-08-24T11:12:12.438Z,4.27
2018-08-24T11:14:40.458Z,5.97
2018-08-24T11:17:09.178Z,5.43
2018-08-24T11:19:37.530Z,7.57
2018-08-24T11:22:05.781Z,7.53
2018-08-24T11:24:36.017Z,5.03
2018-08-24T11:27:04.807Z,6.93
2018-08-24T11:29:33.077Z,5.83
2018-08-24T11:32:01.192Z,7.13
2018-08-24T11:34:29.756Z,7.47
2018-08-24T11:36:58.466Z,5.67
2018-08-24T11:39:26.894Z,4.33
2018-08-24T11:41:55.363Z,5.90
2018-08-24T11:44:23.875Z,5.00
2018-08-24T11:46:52.102Z,6.27
2018-08-24T11:49:20.540Z,4.67
2018-08-24T11:51:48.621Z,4.60
2018-08-24T11:54:16.865Z,8.47
2018-08-24T11:56:44.901Z,6.10
2018-08-24T11:59:13.682Z,6.30
2018-08-24T12:01:41.781Z,6.27
2018-08-24T12:04:09.829Z,8.23
2018-08-24T12:06:39.352Z,4.97
2018-08-24T12:09:08.025Z,3.50
2018-08-24T12:11:36.195Z,5.00
2018-08-24T12:14:04.368Z,7.63
2018-08-24T12:16:33.443Z,4.57
2018-08-24T12:19:01.557Z,4.10
2018-08-24T12:21:30.661Z,5.87
2018-08-24T12:23:58.881Z,4.30
2018-08-24T12:26:26.965Z,3.93
2018-08-24T12:28:55.173Z,6.03
2018-08-24T12:31:23.921Z,3.63
2018-08-24T12:33:52.045Z,3.63
2018-08-24T12:36:20.209Z,5.40
2018-08-24T12:38:48.448Z,4.87
2018-08-24T12:41:16.652Z,8.10
2018-08-24T12:43:44.734Z,3.70
2018-08-24T12:46:13.890Z,4.83
2018-08-24T12:48:42.361Z,3.43
2018-08-24T12:51:10.480Z,2.10
2018-08-24T12:53:38.720Z,4.20
2018-08-24T12:56:06.930Z,5.50
2018-08-24T12:58:35.162Z,5.57
2018-08-24T13:01:03.277Z,5.80
2018-08-24T13:03:31.574Z,9.53
2018-08-24T13:08:45.140Z,6.77
2018-08-24T13:13:58.236Z,3.83
2018-08-24T13:16:26.433Z,5.40
2018-08-24T13:19:58.992Z,2.23
2018-08-24T13:22:28.109Z,4.97
2018-08-24T13:24:56.136Z,2.83
2018-08-24T13:27:25.199Z,6.17
2018-08-24T13:29:53.442Z,3.80
2018-08-24T13:32:21.488Z,4.33
2018-08-24T13:34:50.666Z,5.00
2018-08-24T13:37:18.710Z,2.90
2018-08-24T13:39:47.276Z,2.60
2018-08-24T13:42:15.334Z,5.63
2018-08-24T13:44:43.425Z,5.57
2018-08-24T13:47:11.490Z,5.33
2018-08-24T13:49:39.647Z,7.10
2018-08-24T13:52:09.763Z,3.37
2018-08-24T13:54:37.784Z,5.80
2018-08-24T13:57:06.308Z,3.87
2018-08-24T13:59:34.532Z,4.50
2018-08-24T14:02:02.740Z,3.77
2018-08-24T14:04:30.949Z,4.63
2018-08-24T14:06:59.155Z,3.40
2018-08-24T14:09:27.260Z,6.67
2018-08-24T14:11:55.327Z,4.20
2018-08-24T14:14:23.629Z,3.23
2018-08-24T14:16:51.850Z,5.13
2018-08-24T14:19:20.921Z,5.30
2018-08-24T14:21:49.043Z,4.77
2018-08-24T14:24:17.137Z,6.73
2018-08-24T14:26:45.258Z,5.83
2018-08-24T14:29:13.379Z,4.53
2018-08-24T14:31:41.796Z,2.67
2018-08-24T14:34:09.933Z,7.93
2018-08-24T14:36:38.197Z,6.47
2018-08-24T14:39:07.605Z,5.23
2018-08-24T14:41:35.721Z,4.55
2018-08-24T14:44:03.856Z,8.20
2018-08-24T14:46:31.951Z,6.03
2018-08-24T14:49:00.289Z,5.13
2018-08-24T14:51:29.473Z,6.40
2018-08-24T14:53:59.739Z,5.50
2018-08-24T14:56:27.861Z,7.03
2018-08-24T14:58:56.072Z,7.40
2018-08-24T15:01:24.124Z,5.23
2018-08-24T15:03:52.375Z,7.03
2018-08-24T15:06:20.409Z,4.80
2018-08-24T15:08:48.589Z,5.43
2018-08-24T15:11:16.872Z,5.27
2018-08-24T15:13:44.974Z,5.77
2018-08-24T15:16:13.015Z,3.73
2018-08-24T15:18:41.208Z,7.53
2018-08-24T15:21:09.249Z,5.10
2018-08-24T15:23:37.356Z,6.73
2018-08-24T15:26:05.523Z,7.17
2018-08-24T15:28:34.784Z,4.43
2018-08-24T15:31:02.973Z,4.63
2018-08-24T15:33:31.068Z,6.10
2018-08-24T15:35:59.885Z,4.60
2018-08-24T15:38:28.109Z,4.33
2018-08-24T15:40:56.250Z,3.47
2018-08-24T15:43:24.369Z,3.57
2018-08-24T15:45:53.147Z,5.07
2018-08-24T15:48:21.372Z,5.07
2018-08-24T15:50:49.484Z,5.30
2018-08-24T15:53:17.541Z,3.67
2018-08-24T15:55:46.675Z,2.57
2018-08-24T15:58:14.844Z,10.23
2018-08-24T16:00:42.917Z,5.17
2018-08-24T16:03:10.958Z,5.13
2018-08-24T16:05:39.174Z,2.57
2018-08-24T16:08:07.485Z,7.03
2018-08-24T16:10:35.813Z,5.40
2018-08-24T16:13:04.199Z,10.27
2018-08-24T16:15:32.453Z,4.97
2018-08-24T16:18:00.673Z,10.87
2018-08-24T16:20:28.812Z,6.83
2018-08-24T16:22:56.927Z,6.17
2018-08-24T16:25:26.266Z,5.03
2018-08-24T16:27:54.342Z,6.87
2018-08-24T16:30:28.078Z,6.30
2018-08-24T16:32:56.203Z,9.30
2018-08-24T16:35:24.274Z,4.03
2018-08-24T16:37:52.383Z,8.07
2018-08-24T16:40:20.451Z,4.83
2018-08-24T16:42:48.788Z,8.93
2018-08-24T16:45:16.884Z,5.07
2018-08-24T16:47:45.119Z,5.03
2018-08-24T16:50:13.178Z,3.53
2018-08-24T16:52:42.215Z,5.30
2018-08-24T16:55:10.306Z,4.27
2018-08-24T16:57:38.485Z,6.20
2018-08-24T17:00:07.209Z,6.80
2018-08-24T17:02:35.310Z,5.83
2018-08-24T17:05:03.631Z,4.87
2018-08-24T17:07:31.919Z,5.07
2018-08-24T17:10:00.146Z,4.97
2018-08-24T17:12:28.365Z,6.33
2018-08-24T17:14:56.402Z,6.83
2018-08-24T17:17:24.637Z,4.60
2018-08-24T17:19:52.763Z,3.57
2018-08-24T17:22:21.128Z,9.90
2018-08-24T17:24:49.435Z,3.70
2018-08-24T17:27:17.594Z,4.90
2018-08-24T17:29:45.788Z,4.90
2018-08-24T17:32:13.907Z,3.63
2018-08-24T17:34:42.244Z,4.80
2018-08-24T17:37:10.360Z,3.50
2018-08-24T17:39:38.445Z,4.97
2018-08-24T17:42:06.616Z,3.53
2018-08-24T17:44:34.707Z,6.70
2018-08-24T17:47:02.885Z,8.53
2018-08-24T17:49:31.337Z,7.07
2018-08-24T17:51:59.477Z,7.20
2018-08-24T17:54:28.635Z,4.87
2018-08-24T17:56:56.713Z,6.40
2018-08-24T17:59:24.929Z,2.43
2018-08-24T18:01:53.196Z,4.57
2018-08-24T18:04:21.692Z,6.97
2018-08-24T18:06:49.761Z,6.63
2018-08-24T18:09:17.863Z,3.47
2018-08-24T18:14:32.244Z,6.80
2018-08-24T18:17:00.602Z,7.20
2018-08-24T18:19:28.680Z,6.60
2018-08-24T18:21:56.811Z,4.53
2018-08-24T18:24:24.987Z,6.27
2018-08-24T18:26:53.026Z,5.67
2018-08-24T18:29:21.231Z,4.87
2018-08-24T18:31:49.338Z,6.37
2018-08-24T18:34:17.399Z,4.43
2018-08-24T18:36:45.532Z,6.20
2018-08-24T18:39:13.539Z,6.40
2018-08-24T18:41:41.585Z,5.77
2018-08-24T18:44:09.850Z,4.60
2018-08-24T18:46:37.953Z,4.60
2018-08-24T18:49:06.330Z,5.63
2018-08-24T18:54:18.367Z,5.37
2018-08-24T18:56:46.673Z,4.63
2018-08-24T18:59:14.844Z,5.93
2018-08-24T19:01:43.010Z,4.27
2018-08-24T19:04:11.156Z,3.97
2018-08-24T19:06:39.283Z,2.80
2018-08-24T19:09:08.089Z,7.37
2018-08-24T19:11:36.256Z,5.63
2018-08-24T19:14:04.398Z,3.77
2018-08-24T19:16:32.561Z,6.33
2018-08-24T19:19:00.645Z,6.33
2018-08-24T19:21:29.099Z,8.13
2018-08-24T19:23:57.174Z,6.93
2018-08-24T19:26:25.238Z,5.90
2018-08-24T19:28:53.509Z,5.13
2018-08-24T19:31:21.579Z,6.23
2018-08-24T19:33:51.073Z,3.77
2018-08-24T19:36:19.442Z,9.50
2018-08-24T19:38:47.593Z,4.97
2018-08-24T19:41:15.975Z,4.30
2018-08-24T19:43:44.491Z,3.97
2018-08-24T19:46:12.565Z,5.13
2018-08-24T19:48:40.679Z,5.90
2018-08-24T19:51:08.786Z,6.97
2018-08-24T19:53:36.875Z,4.80
2018-08-24T19:56:05.242Z,8.53
2018-08-24T19:58:33.446Z,7.03
2018-08-24T20:01:01.757Z,5.93
2018-08-24T20:03:29.887Z,5.23
2018-08-24T20:05:58.163Z,5.87
2018-08-24T20:08:26.371Z,5.03
2018-08-24T20:10:54.533Z,4.70
2018-08-24T20:13:22.622Z,2.73
2018-08-24T20:15:50.700Z,8.33
2018-08-24T20:18:19.019Z,7.03
2018-08-24T20:20:47.112Z,4.47
2018-08-24T20:23:15.146Z,7.70
2018-08-24T20:25:43.230Z,3.60
2018-08-24T20:28:11.323Z,4.77
2018-08-24T20:30:39.482Z,3.47
2018-08-24T20:40:04.881Z,6.47
2018-08-24T20:42:33.014Z,4.30
2018-08-24T20:45:01.169Z,2.93
2018-08-24T20:47:31.109Z,5.80
2018-08-24T20:49:59.646Z,5.43
2018-08-24T20:52:27.714Z,5.00
2018-08-24T20:54:55.751Z,2.53
2018-08-24T20:57:24.053Z,4.63
2018-08-24T20:59:52.247Z,5.10
2018-08-24T21:02:20.582Z,4.23
2018-08-24T21:04:58.910Z,6.77
2018-08-24T21:07:29.053Z,4.63
2018-08-24T21:09:57.310Z,3.60
2018-08-24T21:12:25.433Z,7.73
2018-08-24T21:14:53.605Z,4.77
2018-08-24T21:17:21.709Z,4.63
2018-08-24T21:19:49.748Z,4.67
2018-08-24T21:22:17.928Z,3.80
2018-08-24T21:24:46.041Z,4.87
2018-08-24T21:27:14.123Z,4.27
2018-08-24T21:29:42.346Z,5.23
2018-08-24T21:32:10.433Z,2.40
2018-08-24T21:34:38.559Z,3.07
2018-08-24T21:37:09.612Z,6.13
2018-08-24T21:39:39.958Z,2.70
2018-08-24T21:42:08.175Z,3.70
2018-08-24T21:44:36.182Z,5.07
2018-08-24T21:47:04.278Z,5.20
2018-08-24T21:49:33.410Z,3.50
2018-08-24T21:52:01.469Z,3.80
2018-08-24T21:54:29.516Z,4.73
2018-08-24T21:56:57.584Z,6.90
2018-08-24T21:59:27.118Z,6.50
2018-08-24T22:01:55.229Z,5.60
2018-08-24T22:04:23.432Z,4.03
2018-08-24T22:06:51.528Z,3.73
2018-08-24T22:09:19.645Z,4.43
2018-08-24T22:11:47.720Z,4.87
2018-08-24T22:14:15.858Z,2.93
2018-08-24T22:16:46.125Z,5.30
2018-08-24T22:19:14.134Z,2.50
2018-08-24T22:21:43.395Z,5.93
2018-08-24T22:24:11.458Z,3.50
2018-08-24T22:26:39.495Z,4.80
2018-08-24T22:29:07.609Z,3.33
2018-08-24T22:31:38.090Z,2.10
2018-08-24T22:34:06.378Z,3.10
2018-08-24T22:36:34.413Z,5.20
2018-08-24T22:39:03.172Z,2.80
2018-08-24T22:41:31.409Z,3.60
2018-08-24T22:43:59.489Z,2.90
2018-08-24T22:46:27.601Z,2.27
2018-08-24T22:48:55.676Z,4.87
2018-08-24T22:51:23.959Z,4.53
2018-08-24T22:53:52.704Z,5.67
2018-08-24T22:56:20.790Z,3.23
2018-08-24T22:58:48.841Z,3.73
2018-08-24T23:01:16.871Z,1.97
2018-08-24T23:03:44.892Z,4.23
2018-08-24T23:06:13.061Z,5.27
2018-08-24T23:08:41.261Z,4.07
2018-08-24T23:11:09.308Z,4.00
2018-08-24T23:13:37.397Z,4.97
2018-08-24T23:16:06.904Z,5.10
2018-08-24T23:18:35.017Z,3.17
2018-08-24T23:21:03.105Z,4.63
2018-08-24T23:23:31.240Z,2.47
2018-08-24T23:25:59.327Z,4.67
2018-08-24T23:28:27.388Z,3.30
2018-08-24T23:30:55.489Z,3.83
2018-08-24T23:33:23.542Z,4.40
2018-08-24T23:35:51.627Z,3.60
2018-08-24T23:38:19.674Z,4.27
2018-08-24T23:40:47.786Z,4.63
2018-08-24T23:43:15.892Z,2.93
2018-08-24T23:45:43.948Z,3.83
2018-08-24T23:48:12.077Z,4.17
2018-08-24T23:50:40.125Z,3.93
2018-08-24T23:53:10.109Z,2.20
2018-08-24T23:55:38.138Z,2.63
2018-08-24T23:58:06.208Z,4.30
